Terminal Aerodrome Forecast
Issued by NWS

Home | Current Version | Previous Version | Text Only | Print | Product List | Glossary On
Versions: 1 2 3 4 5 6 7 8 9 10 11 12 13 14
000
FTUS44 KTSA 211734
TAFFYV
TAF
KFYV 211734Z 2118/2218 13010KT P6SM SCT100 BKN250
     FM212000 10006KT 5SM -RA BR OVC070
     FM220200 10005KT 5SM -RA BR OVC012
     FM220900 33005KT 5SM -RA BR OVC007=

USA.gov is the U.S. government's official web portal to all federal, state and local government web resources and services.